Time;durP1;ratioP1;P1;durP2;ratioP2;P2;SDS_P1;SDS_P2;PMS_P1;PMS_P2;Temp;Humidity;BMP_temperature;BMP_pressure;BME280_temperature;BME280_humidity;BME280_pressure;Samples;Min_cycle;Max_cycle;Signal;HPM_P1;HPM_P2
2021/07/15 00:00:31;;;;;;;7.25;5.13;;;;;;;-145.12;100.00;63763.75;340302;28;138260;-63
2021/07/15 00:01:45;;;;;;;7.15;5.35;;;;;;;-145.12;100.00;63763.75;341500;28;138240;-70
2021/07/15 00:03:08;;;;;;;7.03;5.20;;;;;;;-145.12;100.00;63763.75;341769;28;137751;-64
2021/07/15 00:04:20;;;;;;;6.97;5.45;;;;;;;-145.12;100.00;63763.75;341764;28;137266;-70
2021/07/15 00:05:32;;;;;;;7.88;4.95;;;;;;;-145.12;100.00;63763.75;341716;28;137332;-63
2021/07/15 00:06:44;;;;;;;7.60;5.80;;;;;;;-145.12;100.00;63763.75;341014;28;160312;-67
2021/07/15 00:07:55;;;;;;;7.30;5.60;;;;;;;-145.12;100.00;63763.75;341580;28;137446;-64
2021/07/15 00:09:08;;;;;;;8.57;5.70;;;;;;;-145.12;100.00;63763.75;341757;28;137381;-63
2021/07/15 00:10:22;;;;;;;7.25;5.60;;;;;;;-145.12;100.00;63763.75;340607;28;161605;-74
2021/07/15 00:11:37;;;;;;;10.75;6.20;;;;;;;-145.12;100.00;63763.75;341769;28;138336;-64
2021/07/15 00:12:50;;;;;;;9.52;5.90;;;;;;;-145.12;100.00;63763.75;341757;28;137437;-65
2021/07/15 00:14:03;;;;;;;8.32;5.55;;;;;;;-145.12;100.00;63763.75;341749;28;138318;-71
2021/07/15 00:15:16;;;;;;;7.00;5.40;;;;;;;-145.12;100.00;63763.75;341626;28;138557;-63
2021/07/15 00:16:28;;;;;;;9.15;5.40;;;;;;;-145.12;100.00;63763.75;341693;28;137409;-63
2021/07/15 00:17:39;;;;;;;7.63;5.75;;;;;;;-145.12;100.00;63763.75;340913;28;160456;-74
2021/07/15 00:18:52;;;;;;;8.60;5.47;;;;;;;-145.12;100.00;63763.75;342440;28;138661;-67
2021/07/15 00:20:07;;;;;;;7.03;5.75;;;;;;;-145.12;100.00;63763.75;341780;28;137499;-64
2021/07/15 00:21:19;;;;;;;8.60;5.90;;;;;;;-145.12;100.00;63763.75;342817;28;138267;-63
2021/07/15 00:22:31;;;;;;;7.88;6.05;;;;;;;-145.12;100.00;63763.75;342995;28;138282;-69
2021/07/15 00:23:42;;;;;;;9.90;6.75;;;;;;;-145.12;100.00;63763.75;343068;28;138567;-64
2021/07/15 00:24:55;;;;;;;9.60;6.30;;;;;;;-145.12;100.00;63763.75;342230;28;159401;-65
2021/07/15 00:26:08;;;;;;;9.13;6.45;;;;;;;-145.12;100.00;63763.75;343131;28;138434;-69
2021/07/15 00:27:20;;;;;;;9.77;6.03;;;;;;;-145.12;100.00;63763.75;342943;28;138718;-69
2021/07/15 00:28:31;;;;;;;8.73;6.60;;;;;;;-145.12;100.00;63763.75;343198;28;137149;-67
2021/07/15 00:29:42;;;;;;;8.00;6.00;;;;;;;-145.12;100.00;63763.75;343750;28;137538;-73
2021/07/15 00:30:53;;;;;;;11.30;6.50;;;;;;;-145.12;100.00;63763.75;344378;28;137233;-71
2021/07/15 00:32:06;;;;;;;7.03;5.32;;;;;;;-145.12;100.00;63763.75;344444;28;137270;-66
2021/07/15 00:33:18;;;;;;;7.60;5.95;;;;;;;-145.12;100.00;63763.75;342206;28;161410;-71
2021/07/15 00:34:29;;;;;;;9.40;6.47;;;;;;;-145.12;100.00;63763.75;343196;28;136470;-66
2021/07/15 00:35:40;;;;;;;10.20;6.40;;;;;;;-145.12;100.00;63763.75;343253;28;136506;-69
2021/07/15 00:36:51;;;;;;;8.80;6.53;;;;;;;-145.12;100.00;63763.75;343383;28;139250;-66
2021/07/15 00:38:04;;;;;;;10.32;6.75;;;;;;;-145.12;100.00;63763.75;343197;28;138422;-63
2021/07/15 00:39:15;;;;;;;8.52;6.88;;;;;;;-145.12;100.00;63763.75;342963;28;137861;-65
2021/07/15 00:40:26;;;;;;;10.40;6.50;;;;;;;-145.12;100.00;63763.75;343272;28;138320;-72
2021/07/15 00:41:37;;;;;;;9.40;6.03;;;;;;;-145.12;100.00;63763.75;341727;28;137618;-64
2021/07/15 00:42:49;;;;;;;9.38;6.20;;;;;;;-145.12;100.00;63763.75;341360;28;137379;-64
2021/07/15 00:44:00;;;;;;;8.50;6.05;;;;;;;-145.12;100.00;63763.75;343228;28;137202;-71
2021/07/15 00:45:12;;;;;;;8.27;5.95;;;;;;;-145.12;100.00;63763.75;342882;28;138224;-62
2021/07/15 00:46:23;;;;;;;9.80;6.22;;;;;;;-145.12;100.00;63763.75;343039;28;138483;-69
2021/07/15 00:47:35;;;;;;;8.60;6.30;;;;;;;-145.12;100.00;63763.75;342868;28;137384;-65
2021/07/15 00:48:46;;;;;;;8.48;6.45;;;;;;;-145.12;100.00;63763.75;343107;28;137230;-66
2021/07/15 00:49:58;;;;;;;8.50;6.20;;;;;;;-145.12;100.00;63763.75;341572;28;136529;-66
2021/07/15 00:51:09;;;;;;;9.40;6.30;;;;;;;-145.12;100.00;63763.75;339064;28;136555;-63
2021/07/15 00:52:21;;;;;;;8.25;5.75;;;;;;;-145.12;100.00;63763.75;340292;28;137358;-64
2021/07/15 00:53:33;;;;;;;9.40;6.80;;;;;;;-145.12;100.00;63763.75;341619;28;138286;-66
2021/07/15 00:54:45;;;;;;;8.90;6.85;;;;;;;-145.12;100.00;63763.75;341774;28;136427;-66
2021/07/15 00:55:56;;;;;;;11.07;6.78;;;;;;;-145.12;100.00;63763.75;342627;28;160322;-65
2021/07/15 00:57:07;;;;;;;10.48;6.93;;;;;;;-145.12;100.00;63763.75;344596;28;138284;-67
2021/07/15 00:58:18;;;;;;;10.52;6.80;;;;;;;-145.12;100.00;63763.75;344504;28;138178;-68
2021/07/15 00:59:29;;;;;;;10.25;7.07;;;;;;;-145.12;100.00;63763.75;343876;28;161384;-68
2021/07/15 01:00:42;;;;;;;11.10;6.65;;;;;;;-145.12;100.00;63763.75;344402;28;137391;-65
2021/07/15 01:01:53;;;;;;;8.95;6.45;;;;;;;-145.12;100.00;63763.75;344538;28;136479;-69
2021/07/15 01:03:06;;;;;;;10.43;7.40;;;;;;;-145.12;100.00;63763.75;344503;28;136540;-71
2021/07/15 01:04:18;;;;;;;11.20;7.47;;;;;;;-145.12;100.00;63763.75;342834;28;138312;-72
2021/07/15 01:05:35;;;;;;;12.00;7.30;;;;;;;-145.12;100.00;63763.75;343003;28;137305;-69
2021/07/15 01:06:49;;;;;;;12.00;7.13;;;;;;;-145.12;100.00;63763.75;344202;28;138485;-63
2021/07/15 01:08:04;;;;;;;11.88;7.68;;;;;;;-145.12;100.00;63763.75;344476;28;136546;-65
2021/07/15 01:09:15;;;;;;;10.30;7.15;;;;;;;-145.12;100.00;63763.75;344297;28;137058;-63
2021/07/15 01:10:30;;;;;;;11.77;6.97;;;;;;;-145.12;100.00;63763.75;344534;28;137229;-71
2021/07/15 01:11:57;;;;;;;9.57;7.07;;;;;;;-145.12;100.00;63763.75;344314;28;138311;-66
2021/07/15 01:13:37;;;;;;;11.30;7.40;;;;;;;-145.12;100.00;63763.75;343194;28;137427;-63
2021/07/15 01:15:11;;;;;;;12.05;7.30;;;;;;;-145.12;100.00;63763.75;343075;28;138494;-68
2021/07/15 01:16:31;;;;;;;10.38;7.13;;;;;;;-145.12;100.00;63763.75;343140;28;137501;-66
2021/07/15 01:18:07;;;;;;;12.00;7.32;;;;;;;-145.12;100.00;63763.75;342354;28;161435;-64
2021/07/15 01:19:33;;;;;;;10.50;7.88;;;;;;;-145.12;100.00;63763.75;343238;28;137459;-65
2021/07/15 01:21:10;;;;;;;10.85;7.45;;;;;;;-145.12;100.00;63763.75;343154;28;137398;-65
2021/07/15 01:22:48;;;;;;;11.56;7.40;;;;;;;-145.12;100.00;63763.75;342622;28;161400;-66
2021/07/15 01:24:36;;;;;;;11.70;7.88;;;;;;;-145.12;100.00;63763.75;343376;28;137513;-63
2021/07/15 01:26:18;;;;;;;12.05;7.50;;;;;;;-145.12;100.00;63763.75;343182;28;137271;-62
2021/07/15 01:27:50;;;;;;;11.13;7.65;;;;;;;-145.12;100.00;63763.75;343337;28;137317;-63
2021/07/15 01:29:25;;;;;;;12.50;7.93;;;;;;;-145.12;100.00;63763.75;343382;28;138754;-63
2021/07/15 01:30:52;;;;;;;13.40;7.50;;;;;;;-145.12;100.00;63763.75;343233;28;138317;-63
2021/07/15 01:32:06;;;;;;;12.32;7.68;;;;;;;-145.12;100.00;63763.75;342512;28;160321;-63
2021/07/15 01:33:30;;;;;;;11.30;7.47;;;;;;;-145.12;100.00;63763.75;343106;28;137213;-63
2021/07/15 01:34:44;;;;;;;11.63;7.68;;;;;;;-145.12;100.00;63763.75;343289;28;137265;-65
2021/07/15 01:35:59;;;;;;;12.10;7.78;;;;;;;-145.12;100.00;63763.75;343305;28;138544;-63
2021/07/15 01:37:12;;;;;;;12.07;7.88;;;;;;;-145.12;100.00;63763.75;343260;28;138343;-63
2021/07/15 01:38:35;;;;;;;10.40;7.80;;;;;;;-145.12;100.00;63763.75;343226;28;138302;-63
2021/07/15 01:39:51;;;;;;;14.10;7.78;;;;;;;-145.12;100.00;63763.75;343163;28;136517;-65
2021/07/15 01:41:06;;;;;;;11.82;8.20;;;;;;;-145.12;100.00;63763.75;343344;28;137424;-69
2021/07/15 01:42:20;;;;;;;11.63;7.70;;;;;;;-145.12;100.00;63763.75;343169;28;138221;-67
2021/07/15 01:43:34;;;;;;;13.25;8.10;;;;;;;-145.12;100.00;63763.75;343238;28;137236;-63
2021/07/15 01:44:49;;;;;;;14.20;7.85;;;;;;;-145.12;100.00;63763.75;343213;28;138560;-67
2021/07/15 01:46:02;;;;;;;13.84;7.98;;;;;;;-145.12;100.00;63763.75;342608;28;159568;-65
2021/07/15 01:47:15;;;;;;;14.60;8.45;;;;;;;-145.12;100.00;63763.75;343154;28;138286;-63
2021/07/15 01:48:27;;;;;;;12.48;7.82;;;;;;;-145.12;100.00;63763.75;343248;28;138324;-64
2021/07/15 01:49:41;;;;;;;12.77;8.27;;;;;;;-145.12;100.00;63763.75;343369;28;137423;-73
2021/07/15 01:50:55;;;;;;;11.44;7.92;;;;;;;-145.12;100.00;63763.75;342479;28;161262;-63
2021/07/15 01:52:09;;;;;;;13.02;8.02;;;;;;;-145.12;100.00;63763.75;343587;28;137212;-67
2021/07/15 01:53:20;;;;;;;11.68;8.43;;;;;;;-145.12;100.00;63763.75;343372;28;137297;-63
2021/07/15 01:54:32;;;;;;;11.94;7.82;;;;;;;-145.12;100.00;63763.75;341158;28;160276;-68
2021/07/15 01:55:43;;;;;;;13.18;8.02;;;;;;;-145.12;100.00;63763.75;344452;28;137380;-67
2021/07/15 01:56:56;;;;;;;12.88;7.98;;;;;;;-145.12;100.00;63763.75;342913;28;160096;-64
2021/07/15 01:58:09;;;;;;;11.07;8.00;;;;;;;-145.12;100.00;63763.75;343356;28;138538;-64
2021/07/15 01:59:23;;;;;;;12.93;7.72;;;;;;;-145.12;100.00;63763.75;343266;28;137298;-63
2021/07/15 02:00:36;;;;;;;11.90;8.18;;;;;;;-145.12;100.00;63763.75;343321;28;137225;-62
2021/07/15 02:01:49;;;;;;;14.63;8.27;;;;;;;-145.12;100.00;63763.75;343272;28;136581;-64
2021/07/15 02:03:03;;;;;;;14.65;8.27;;;;;;;-145.12;100.00;63763.75;342491;28;160235;-63
2021/07/15 02:04:16;;;;;;;12.60;8.07;;;;;;;-145.12;100.00;63763.75;343246;28;137154;-64
2021/07/15 02:05:29;;;;;;;14.05;8.15;;;;;;;-145.12;100.00;63763.75;343277;28;136473;-64
2021/07/15 02:06:42;;;;;;;12.40;7.85;;;;;;;-145.12;100.00;63763.75;343348;28;137133;-65
2021/07/15 02:07:54;;;;;;;13.27;8.40;;;;;;;-145.12;100.00;63763.75;342355;28;138666;-63
2021/07/15 02:09:08;;;;;;;12.30;7.62;;;;;;;-145.12;100.00;63763.75;344026;28;160286;-63
2021/07/15 02:10:21;;;;;;;12.80;8.52;;;;;;;-145.12;100.00;63763.75;344684;28;136507;-68
2021/07/15 02:11:33;;;;;;;14.77;8.23;;;;;;;-145.12;100.00;63763.75;345926;28;137144;-70
2021/07/15 02:12:47;;;;;;;13.93;8.50;;;;;;;-145.12;100.00;63763.75;345680;28;137530;-63
2021/07/15 02:14:01;;;;;;;12.60;8.15;;;;;;;-145.12;100.00;63763.75;344754;28;138295;-68
2021/07/15 02:15:13;;;;;;;13.15;8.48;;;;;;;-145.12;100.00;63763.75;344538;28;137183;-62
2021/07/15 02:16:25;;;;;;;16.05;8.73;;;;;;;-145.12;100.00;63763.75;344749;28;137131;-64
2021/07/15 02:17:40;;;;;;;13.70;8.52;;;;;;;-145.12;100.00;63763.75;345876;28;137106;-65
2021/07/15 02:18:53;;;;;;;12.80;8.43;;;;;;;-145.12;100.00;63763.75;343164;28;136995;-63
2021/07/15 02:20:07;;;;;;;12.57;8.15;;;;;;;-145.12;100.00;63763.75;342084;28;136576;-65
2021/07/15 02:21:18;;;;;;;11.85;8.35;;;;;;;-145.12;100.00;63763.75;342987;28;138250;-67
2021/07/15 02:22:32;;;;;;;14.07;8.45;;;;;;;-145.12;100.00;63763.75;343064;28;136748;-64
2021/07/15 02:23:45;;;;;;;15.90;8.02;;;;;;;-145.12;100.00;63763.75;341922;28;137368;-65
2021/07/15 02:24:57;;;;;;;14.68;8.27;;;;;;;-145.12;100.00;63763.75;341981;28;137199;-64
2021/07/15 02:26:11;;;;;;;13.15;7.88;;;;;;;-145.12;100.00;63763.75;341908;28;137232;-63
2021/07/15 02:27:25;;;;;;;13.98;8.32;;;;;;;-145.12;100.00;63763.75;341884;28;138318;-63
2021/07/15 02:28:37;;;;;;;14.30;8.40;;;;;;;-145.12;100.00;63763.75;341069;28;161595;-63
2021/07/15 02:29:48;;;;;;;13.38;8.38;;;;;;;-145.12;100.00;63763.75;341925;28;138495;-63
2021/07/15 02:31:05;;;;;;;11.82;8.32;;;;;;;-145.12;100.00;63763.75;341750;28;138326;-69
2021/07/15 02:32:18;;;;;;;12.57;8.50;;;;;;;-145.12;100.00;63763.75;341940;28;136606;-62
2021/07/15 02:33:30;;;;;;;13.48;9.20;;;;;;;-145.12;100.00;63763.75;340738;28;160481;-63
2021/07/15 02:34:50;;;;;;;14.48;8.82;;;;;;;-145.12;100.00;63763.75;341769;28;138386;-62
2021/07/15 02:36:12;;;;;;;12.60;8.60;;;;;;;-145.12;100.00;63763.75;342054;28;138217;-65
2021/07/15 02:37:27;;;;;;;14.35;8.45;;;;;;;-145.12;100.00;63763.75;341988;28;138277;-63
2021/07/15 02:38:40;;;;;;;16.23;8.98;;;;;;;-145.12;100.00;63763.75;342018;28;138524;-63
2021/07/15 02:39:52;;;;;;;16.00;9.73;;;;;;;-145.12;100.00;63763.75;343981;28;138538;-62
2021/07/15 02:41:05;;;;;;;14.07;9.20;;;;;;;-145.12;100.00;63763.75;342023;28;136599;-65
2021/07/15 02:42:16;;;;;;;16.30;9.45;;;;;;;-145.12;100.00;63763.75;342923;28;138245;-65
2021/07/15 02:43:28;;;;;;;14.15;9.00;;;;;;;-145.12;100.00;63763.75;343068;28;138366;-65
2021/07/15 02:44:39;;;;;;;13.70;9.20;;;;;;;-145.12;100.00;63763.75;342196;28;137206;-65
2021/07/15 02:45:52;;;;;;;14.88;9.05;;;;;;;-145.12;100.00;63763.75;341847;28;138542;-64
2021/07/15 02:47:05;;;;;;;15.32;8.55;;;;;;;-145.12;100.00;63763.75;343224;28;137186;-65
2021/07/15 02:48:17;;;;;;;11.27;7.80;;;;;;;-145.12;100.00;63763.75;342987;28;138274;-66
2021/07/15 02:49:28;;;;;;;15.68;9.32;;;;;;;-145.12;100.00;63763.75;341944;28;137163;-62
2021/07/15 02:50:40;;;;;;;14.57;9.15;;;;;;;-145.12;100.00;63763.75;343523;28;138483;-63
2021/07/15 02:51:51;;;;;;;14.70;9.10;;;;;;;-145.12;100.00;63763.75;343116;28;138349;-65
2021/07/15 02:53:04;;;;;;;14.52;9.05;;;;;;;-145.12;100.00;63763.75;343322;28;137117;-63
2021/07/15 02:54:16;;;;;;;16.63;9.65;;;;;;;-145.12;100.00;63763.75;342378;28;161166;-63
2021/07/15 02:55:28;;;;;;;14.85;9.52;;;;;;;-145.12;100.00;63763.75;341575;28;138547;-66
2021/07/15 02:57:13;;;;;;;14.68;9.20;;;;;;;-145.12;100.00;63763.75;341823;28;138494;-63
2021/07/15 02:58:33;;;;;;;15.85;9.20;;;;;;;-145.12;100.00;63763.75;340416;28;138344;-65
2021/07/15 03:00:06;;;;;;;14.65;9.23;;;;;;;-145.12;100.00;63763.75;342410;28;160143;-64
2021/07/15 03:01:20;;;;;;;13.10;8.63;;;;;;;-145.12;100.00;63763.75;343098;28;136453;-65
2021/07/15 03:02:56;;;;;;;14.20;8.90;;;;;;;-145.12;100.00;63763.75;343768;28;160013;-63
2021/07/15 03:04:29;;;;;;;13.73;8.98;;;;;;;-145.12;100.00;63763.75;341912;28;137513;-63
2021/07/15 03:05:59;;;;;;;14.73;9.23;;;;;;;-145.12;100.00;63763.75;341795;28;138301;-63
2021/07/15 03:07:14;;;;;;;14.48;8.30;;;;;;;-145.12;100.00;63763.75;341927;28;138460;-62
2021/07/15 03:08:31;;;;;;;12.50;8.80;;;;;;;-145.12;100.00;63763.75;341005;28;160175;-65
2021/07/15 03:09:50;;;;;;;12.93;8.05;;;;;;;-145.12;100.00;63763.75;341581;28;138543;-71
2021/07/15 03:11:04;;;;;;;13.57;9.20;;;;;;;-145.12;100.00;63763.75;341849;28;137269;-63
2021/07/15 03:12:18;;;;;;;16.17;9.25;;;;;;;-145.12;100.00;63763.75;343066;28;136502;-62
2021/07/15 03:13:32;;;;;;;12.65;8.68;;;;;;;-145.12;100.00;63763.75;343105;28;138359;-62
2021/07/15 03:14:45;;;;;;;13.80;8.98;;;;;;;-145.12;100.00;63763.75;343007;28;138460;-62
2021/07/15 03:15:57;;;;;;;14.70;8.65;;;;;;;-145.12;100.00;63763.75;342941;28;137379;-64
2021/07/15 03:17:11;;;;;;;15.30;8.10;;;;;;;-145.12;100.00;63763.75;343160;28;137387;-63
2021/07/15 03:18:35;;;;;;;13.95;9.10;;;;;;;-145.12;100.00;63763.75;343449;28;138690;-63
2021/07/15 03:19:48;;;;;;;13.85;8.75;;;;;;;-145.12;100.00;63763.75;342960;28;138576;-68
2021/07/15 03:21:04;;;;;;;13.40;8.85;;;;;;;-145.12;100.00;63763.75;341561;28;137826;-64
2021/07/15 03:22:17;;;;;;;15.40;9.02;;;;;;;-145.12;100.00;63763.75;342854;28;137576;-64
2021/07/15 03:23:31;;;;;;;13.23;8.90;;;;;;;-145.12;100.00;63763.75;341808;28;138563;-63
2021/07/15 03:24:51;;;;;;;11.80;7.70;;;;;;;-145.12;100.00;63763.75;341800;28;137432;-68
2021/07/15 03:26:05;;;;;;;14.80;8.90;;;;;;;-145.12;100.00;63763.75;341864;28;137508;-63
2021/07/15 03:27:18;;;;;;;12.75;8.32;;;;;;;-145.12;100.00;63763.75;342119;28;137201;-63
2021/07/15 03:28:32;;;;;;;14.65;8.77;;;;;;;-145.12;100.00;63763.75;343227;28;138297;-63
2021/07/15 03:29:46;;;;;;;11.60;8.35;;;;;;;-145.12;100.00;63763.75;342971;28;137234;-63
2021/07/15 03:31:03;;;;;;;12.30;8.27;;;;;;;-145.12;100.00;63763.75;343164;28;138445;-65
2021/07/15 03:32:16;;;;;;;12.20;8.35;;;;;;;-145.12;100.00;63763.75;341669;28;138555;-66
2021/07/15 03:33:28;;;;;;;13.60;8.80;;;;;;;-145.12;100.00;63763.75;340514;28;137779;-63
2021/07/15 03:34:41;;;;;;;13.07;8.52;;;;;;;-145.12;100.00;63763.75;341028;28;159917;-63
2021/07/15 03:35:53;;;;;;;13.75;8.68;;;;;;;-145.12;100.00;63763.75;343165;28;137143;-62
2021/07/15 03:37:06;;;;;;;14.70;8.65;;;;;;;-145.12;100.00;63763.75;341718;28;137399;-62
2021/07/15 03:38:18;;;;;;;9.00;6.80;;;;;;;-145.12;100.00;63763.75;341520;28;136511;-63
2021/07/15 03:39:30;;;;;;;14.48;9.13;;;;;;;-145.12;100.00;63763.75;342529;28;160293;-62
2021/07/15 03:40:44;;;;;;;15.27;8.60;;;;;;;-145.12;100.00;63763.75;343068;28;138786;-70
2021/07/15 03:41:58;;;;;;;15.30;8.93;;;;;;;-145.12;100.00;63763.75;342996;28;136558;-63
2021/07/15 03:43:10;;;;;;;14.65;8.45;;;;;;;-145.12;100.00;63763.75;343132;28;138300;-64
2021/07/15 03:44:23;;;;;;;12.80;8.15;;;;;;;-145.12;100.00;63763.75;341016;28;160332;-63
2021/07/15 03:45:36;;;;;;;15.63;8.98;;;;;;;-145.12;100.00;63763.75;341619;28;137201;-62
2021/07/15 03:46:48;;;;;;;14.40;8.35;;;;;;;-145.12;100.00;63763.75;340203;28;138433;-62
2021/07/15 03:48:01;;;;;;;15.18;9.05;;;;;;;-145.12;100.00;63763.75;340306;28;138357;-63
2021/07/15 03:49:16;;;;;;;14.07;8.60;;;;;;;-145.12;100.00;63763.75;340952;28;161421;-63
2021/07/15 03:50:29;;;;;;;13.75;8.45;;;;;;;-145.12;100.00;63763.75;341691;28;138987;-63
2021/07/15 03:51:41;;;;;;;13.52;8.60;;;;;;;-145.12;100.00;63763.75;341841;28;137357;-69
2021/07/15 03:52:54;;;;;;;13.25;8.55;;;;;;;-145.12;100.00;63763.75;341829;28;137934;-65
2021/07/15 03:54:07;;;;;;;12.60;8.20;;;;;;;-145.12;100.00;63763.75;341701;28;136472;-62
2021/07/15 03:55:27;;;;;;;12.70;8.68;;;;;;;-145.12;100.00;63763.75;343155;28;137207;-62
2021/07/15 03:56:42;;;;;;;12.63;7.88;;;;;;;-145.12;100.00;63763.75;343102;28;137412;-63
2021/07/15 03:57:54;;;;;;;14.52;8.88;;;;;;;-145.12;100.00;63763.75;343025;28;136582;-70
2021/07/15 03:59:08;;;;;;;12.50;8.68;;;;;;;-145.12;100.00;63763.75;342383;28;160056;-66
2021/07/15 04:00:21;;;;;;;14.32;8.90;;;;;;;-145.12;100.00;63763.75;342980;28;138262;-64
2021/07/15 04:01:34;;;;;;;13.07;8.40;;;;;;;-145.12;100.00;63763.75;343155;28;137069;-63
2021/07/15 04:03:00;;;;;;;14.18;8.75;;;;;;;-145.12;100.00;63763.75;343103;28;138596;-63
2021/07/15 04:04:16;;;;;;;15.10;8.80;;;;;;;-145.12;100.00;63763.75;342427;28;161728;-63
2021/07/15 04:05:29;;;;;;;14.15;9.20;;;;;;;-145.12;100.00;63763.75;343068;28;137242;-62
2021/07/15 04:06:42;;;;;;;15.77;9.25;;;;;;;-145.12;100.00;63763.75;343250;28;137412;-62
2021/07/15 04:07:57;;;;;;;14.00;9.10;;;;;;;-145.12;100.00;63763.75;343265;28;136516;-62
2021/07/15 04:09:11;;;;;;;14.88;9.13;;;;;;;-145.12;100.00;63763.75;342782;28;138439;-62
2021/07/15 04:10:25;;;;;;;12.20;8.10;;;;;;;-145.12;100.00;63763.75;343098;28;136915;-62
2021/07/15 04:11:42;;;;;;;12.85;8.63;;;;;;;-145.12;100.00;63763.75;343171;28;137118;-64
2021/07/15 04:12:55;;;;;;;13.70;8.73;;;;;;;-145.12;100.00;63763.75;342170;28;160072;-63
2021/07/15 04:14:10;;;;;;;14.48;8.88;;;;;;;-145.12;100.00;63763.75;343066;28;137392;-63
2021/07/15 04:15:38;;;;;;;12.77;8.73;;;;;;;-145.12;100.00;63763.75;342097;28;161587;-62
2021/07/15 04:17:05;;;;;;;13.43;8.98;;;;;;;-145.12;100.00;63763.75;342997;28;137331;-62
2021/07/15 04:18:17;;;;;;;14.48;9.23;;;;;;;-145.12;100.00;63763.75;343135;28;136561;-64
2021/07/15 04:19:33;;;;;;;14.85;8.40;;;;;;;-145.12;100.00;63763.75;342383;28;160446;-62
2021/07/15 04:20:45;;;;;;;12.32;8.88;;;;;;;-145.12;100.00;63763.75;342961;28;137170;-63
2021/07/15 04:21:57;;;;;;;11.82;8.82;;;;;;;-145.12;100.00;63763.75;342349;28;160067;-69
2021/07/15 04:23:10;;;;;;;15.38;8.50;;;;;;;-145.12;100.00;63763.75;343090;28;138485;-65
2021/07/15 04:24:23;;;;;;;13.10;8.23;;;;;;;-145.12;100.00;63763.75;341613;28;137109;-62
2021/07/15 04:25:36;;;;;;;13.34;8.52;;;;;;;-145.12;100.00;63763.75;342483;28;161419;-72
2021/07/15 04:26:51;;;;;;;12.55;8.45;;;;;;;-145.12;100.00;63763.75;344512;28;138336;-66
2021/07/15 04:28:04;;;;;;;12.88;8.32;;;;;;;-145.12;100.00;63763.75;344543;28;137237;-64
2021/07/15 04:29:18;;;;;;;11.27;8.15;;;;;;;-145.12;100.00;63763.75;344211;28;138715;-63
2021/07/15 04:30:29;;;;;;;12.70;8.20;;;;;;;-145.12;100.00;63763.75;344529;28;138852;-69
2021/07/15 04:31:53;;;;;;;13.63;8.50;;;;;;;-145.12;100.00;63763.75;344460;28;138599;-66
2021/07/15 04:33:15;;;;;;;13.10;8.73;;;;;;;-145.12;100.00;63763.75;344459;28;138387;-66
2021/07/15 04:34:27;;;;;;;11.20;8.30;;;;;;;-145.12;100.00;63763.75;344486;28;137945;-67
2021/07/15 04:35:39;;;;;;;12.38;8.23;;;;;;;-145.12;100.00;63763.75;343703;28;160141;-70
2021/07/15 04:36:55;;;;;;;12.73;8.55;;;;;;;-145.12;100.00;63763.75;344383;28;138528;-66
2021/07/15 04:38:07;;;;;;;10.73;7.45;;;;;;;-145.12;100.00;63763.75;343095;28;137124;-65
2021/07/15 04:39:23;;;;;;;13.85;9.18;;;;;;;-145.12;100.00;63763.75;343050;28;137179;-67
2021/07/15 04:40:35;;;;;;;12.30;8.90;;;;;;;-145.12;100.00;63763.75;342146;28;160120;-65
2021/07/15 04:41:47;;;;;;;16.38;9.32;;;;;;;-145.12;100.00;63763.75;342949;28;136541;-66
2021/07/15 04:43:02;;;;;;;16.85;9.48;;;;;;;-145.12;100.00;63763.75;343154;28;137472;-64
2021/07/15 04:44:14;;;;;;;14.20;9.93;;;;;;;-145.12;100.00;63763.75;342926;28;138322;-62
2021/07/15 04:45:30;;;;;;;13.48;8.70;;;;;;;-145.12;100.00;63763.75;343071;28;138330;-66
2021/07/15 04:46:42;;;;;;;15.52;9.90;;;;;;;-145.12;100.00;63763.75;343219;28;137414;-68
2021/07/15 04:47:55;;;;;;;14.10;10.63;;;;;;;-145.12;100.00;63763.75;344175;28;162316;-70
2021/07/15 04:49:07;;;;;;;19.60;11.50;;;;;;;-145.12;100.00;63763.75;342991;28;137207;-65
2021/07/15 04:50:19;;;;;;;19.05;12.00;;;;;;;-145.12;100.00;63763.75;342948;28;136398;-69
2021/07/15 04:51:32;;;;;;;17.45;11.40;;;;;;;-145.12;100.00;63763.75;344268;28;138485;-70
2021/07/15 04:52:53;;;;;;;17.73;11.40;;;;;;;-145.12;100.00;63763.75;344173;28;137206;-66
2021/07/15 04:54:07;;;;;;;18.00;11.60;;;;;;;-145.12;100.00;63763.75;344500;28;138412;-65
2021/07/15 04:55:20;;;;;;;18.05;12.10;;;;;;;-145.12;100.00;63763.75;343391;28;138314;-67
2021/07/15 04:56:32;;;;;;;20.75;12.20;;;;;;;-145.12;100.00;63763.75;343323;28;138291;-66
2021/07/15 04:57:44;;;;;;;17.35;11.95;;;;;;;-145.12;100.00;63763.75;342592;28;160288;-68
2021/07/15 04:58:58;;;;;;;19.25;12.75;;;;;;;-145.12;100.00;63763.75;341995;28;137348;-63
2021/07/15 05:00:11;;;;;;;19.92;13.48;;;;;;;-145.12;100.00;63763.75;341334;28;161422;-62
2021/07/15 05:01:24;;;;;;;23.98;15.55;;;;;;;-145.12;100.00;63763.75;341877;28;138479;-62
2021/07/15 05:02:36;;;;;;;25.85;17.25;;;;;;;-145.12;100.00;63763.75;344725;28;137361;-66
2021/07/15 05:03:51;;;;;;;26.75;17.67;;;;;;;-145.12;100.00;63763.75;344532;28;138541;-63
2021/07/15 05:05:05;;;;;;;25.17;16.95;;;;;;;-145.12;100.00;63763.75;344680;28;138557;-67
2021/07/15 05:06:19;;;;;;;23.15;15.00;;;;;;;-145.12;100.00;63763.75;344475;28;136640;-63
2021/07/15 05:07:30;;;;;;;25.38;14.63;;;;;;;-145.12;100.00;63763.75;344585;28;138421;-62
2021/07/15 05:08:41;;;;;;;23.08;14.60;;;;;;;-145.12;100.00;63763.75;344602;28;137279;-63
2021/07/15 05:09:52;;;;;;;21.85;13.93;;;;;;;-145.12;100.00;63763.75;344707;28;136144;-68
2021/07/15 05:11:04;;;;;;;18.50;12.80;;;;;;;-145.12;100.00;63763.75;344017;28;161406;-71
2021/07/15 05:12:15;;;;;;;18.83;12.38;;;;;;;-145.12;100.00;63763.75;344510;28;137309;-71
2021/07/15 05:13:27;;;;;;;18.88;12.15;;;;;;;-145.12;100.00;63763.75;344627;28;136491;-64
2021/07/15 05:14:42;;;;;;;18.77;11.30;;;;;;;-145.12;100.00;63763.75;344752;28;137413;-65
2021/07/15 05:15:53;;;;;;;16.05;11.27;;;;;;;-145.12;100.00;63763.75;344661;28;138088;-70
2021/07/15 05:17:05;;;;;;;16.98;10.38;;;;;;;-145.12;100.00;63763.75;344797;28;137390;-67
2021/07/15 05:18:17;;;;;;;13.30;9.35;;;;;;;-145.12;100.00;63763.75;344538;28;137386;-66
2021/07/15 05:19:29;;;;;;;15.70;9.10;;;;;;;-145.12;100.00;63763.75;344607;28;138206;-67
2021/07/15 05:20:40;;;;;;;14.65;9.38;;;;;;;-145.12;100.00;63763.75;344849;28;138205;-65
2021/07/15 05:21:51;;;;;;;14.27;8.88;;;;;;;-145.12;100.00;63763.75;344715;28;137223;-66
2021/07/15 05:23:03;;;;;;;14.38;8.95;;;;;;;-145.12;100.00;63763.75;342486;28;159411;-67
2021/07/15 05:24:14;;;;;;;16.05;9.05;;;;;;;-145.12;100.00;63763.75;343094;28;138450;-63
2021/07/15 05:25:25;;;;;;;13.45;8.77;;;;;;;-145.12;100.00;63763.75;343322;28;136488;-68
2021/07/15 05:26:36;;;;;;;14.57;8.23;;;;;;;-145.12;100.00;63763.75;341852;28;137800;-66
2021/07/15 05:27:48;;;;;;;11.73;7.65;;;;;;;-145.12;100.00;63763.75;341811;28;138520;-65
2021/07/15 05:28:59;;;;;;;14.95;10.02;;;;;;;-145.12;100.00;63763.75;342025;28;137080;-67
2021/07/15 05:30:11;;;;;;;13.52;9.25;;;;;;;-145.12;100.00;63763.75;341982;28;138599;-67
2021/07/15 05:31:22;;;;;;;14.07;8.63;;;;;;;-145.12;100.00;63763.75;341782;28;136564;-63
2021/07/15 05:32:33;;;;;;;15.40;8.18;;;;;;;-145.12;100.00;63763.75;341924;28;138492;-69
2021/07/15 05:33:45;;;;;;;12.98;8.52;;;;;;;-145.12;100.00;63763.75;343150;28;137087;-63
2021/07/15 05:34:57;;;;;;;12.55;8.45;;;;;;;-145.12;100.00;63763.75;343342;28;137191;-64
2021/07/15 05:36:11;;;;;;;14.02;8.35;;;;;;;-145.12;100.00;63763.75;344670;28;137418;-67